Aeroporto :







RITROVATECI SU...

 
LOGIN :

Iscrizione | Disclaimer

   EN    FR    IT 

 









Sommario :    VFR   VFR Marginale   IFR   IFR Intensivo   IFR Molto Intensivo
Visibilità : 
Base nubi : 
>= 8 km
>= 3000ft
5 / 8 km
1000 / 3000 ft
1500m / 5 km
500 / 1000 ft
800 / 1500m
200 / 500 ft
< 800m
< 200 ft
Simboli :   Temporali  Nebbia  Neve Forte  Precipitazioni Forti  Vento > 20 kt






- Altitudine del aeroporto : 59 ft
- Codice IATA : PBM


SMJP - J.A. Pengel Int.

ULTIMO METAR :
  • 012000Z 10009KT 9999 -SHRA FEW010 FEW018CB SCT025 27/25 Q1011 NOSIG

METARs OBSOLETI :
  • 011900Z 03009KT 9999 FEW018CB SCT025 29/24 Q1012 NOSIG
  • 011800Z 01007KT 8000 VCSH SCT010 FEW015CB SCT025 27/24 Q1013 NOSIG

TAF TAF SMJP
Valido dal 01 a 18 ore il 02 a 18 ore UTC


011600Z 0118/0218 08008KT 9999 SCT015 SCT030 TX31/0218Z TN23/0207Z
TEMPO 0118/0122 5000 SHRA FEW015TCU SCT025
BECMG 0208/0209 00000KT 3000 BR FEW003
FM021100 06006KT 9999 SCT012
FIR SMPM / Sudamerica



MetMap, La meteo Aeronautica in un colpo d'occhio ! - Copyright ORBIFLY Dicembre 2007 - Disclaimer

ORBIFLY MET'MAP TEAM :

Programmazione e sviluppo : Alexandra Zaïnal
Concezione : Baudouin d'Aumeries
Aiuto per la programmazione : Marc-Olivier Méhu
Supporto tecnico e logistico : Manuel Goepfert
Aiuto per la traduzione : Arnaldo La Scala

Contatto : metmap@orbifly.com




FONTI E CREDITI :

   NOAA